createdAt,value
2023-01-06T00:00:21.191Z,85.45
2023-01-06T00:03:12.722Z,85.44
2023-01-06T00:05:43.755Z,85.44
2023-01-06T00:08:14.680Z,85.40
2023-01-06T00:10:45.757Z,85.38
2023-01-06T00:13:16.855Z,85.35
2023-01-06T00:15:48.228Z,85.11
2023-01-06T00:18:19.598Z,85.13
2023-01-06T00:20:50.698Z,85.30
2023-01-06T00:23:21.857Z,85.22
2023-01-06T00:25:54.059Z,85.19
2023-01-06T00:28:25.153Z,85.10
2023-01-06T00:30:56.561Z,84.50
2023-01-06T00:33:26.432Z,83.77
2023-01-06T00:36:01.198Z,83.66
2023-01-06T00:38:32.560Z,83.69
2023-01-06T00:41:26.896Z,83.53
2023-01-06T00:43:59.187Z,83.42
2023-01-06T00:46:34.325Z,83.36
2023-01-06T00:49:08.156Z,83.38
2023-01-06T00:51:41.298Z,83.67
2023-01-06T00:54:13.682Z,83.75
2023-01-06T00:56:46.225Z,83.69
2023-01-06T00:59:19.811Z,83.69
2023-01-06T01:01:52.996Z,83.77
2023-01-06T01:04:24.900Z,83.95
2023-01-06T01:06:56.914Z,84.15
2023-01-06T01:09:32.123Z,84.40
2023-01-06T01:12:12.497Z,84.52
2023-01-06T01:14:47.305Z,84.45
2023-01-06T01:17:21.535Z,84.49
2023-01-06T01:19:55.739Z,84.72
2023-01-06T01:22:28.796Z,85.00
2023-01-06T01:25:00.201Z,85.12
2023-01-06T01:27:31.417Z,85.43
2023-01-06T01:30:02.488Z,85.44
2023-01-06T01:32:33.589Z,85.41
2023-01-06T01:35:04.537Z,85.37
2023-01-06T01:37:35.523Z,85.43
2023-01-06T01:40:08.217Z,85.27
2023-01-06T01:42:39.364Z,85.37
2023-01-06T01:45:27.449Z,85.48
2023-01-06T01:48:01.446Z,85.61
2023-01-06T01:50:35.878Z,85.78
2023-01-06T01:53:12.056Z,85.78
2023-01-06T01:55:43.350Z,85.88
2023-01-06T01:58:18.902Z,85.73
2023-01-06T02:00:49.864Z,85.67
2023-01-06T02:03:22.131Z,85.60
2023-01-06T02:05:58.239Z,85.47
2023-01-06T02:08:36.542Z,85.35
2023-01-06T02:11:08.567Z,85.18
2023-01-06T02:13:43.091Z,85.17
2023-01-06T02:16:21.194Z,85.12
2023-01-06T02:19:00.931Z,85.37
2023-01-06T02:21:43.066Z,85.44
2023-01-06T02:24:53.320Z,85.64
2023-01-06T02:27:41.029Z,85.72
2023-01-06T02:30:41.218Z,85.95
2023-01-06T02:33:21.531Z,86.15
2023-01-06T02:36:05.384Z,86.44
2023-01-06T02:38:50.653Z,86.54
2023-01-06T02:41:34.414Z,86.73
2023-01-06T02:44:11.451Z,86.99
2023-01-06T02:46:56.857Z,87.18
2023-01-06T02:49:33.845Z,87.25
2023-01-06T02:52:14.330Z,87.53
2023-01-06T02:54:52.328Z,87.66
2023-01-06T02:57:28.521Z,87.60
2023-01-06T03:00:08.451Z,87.61
2023-01-06T03:02:42.224Z,87.83
2023-01-06T03:05:17.327Z,87.76
2023-01-06T03:07:49.503Z,87.78
2023-01-06T03:10:25.261Z,87.97
2023-01-06T03:13:02.910Z,87.98
2023-01-06T03:15:34.476Z,88.06
2023-01-06T03:18:06.196Z,88.34
2023-01-06T03:20:37.440Z,88.46
2023-01-06T03:23:07.548Z,88.42
2023-01-06T03:25:38.703Z,88.33
2023-01-06T03:28:09.900Z,88.45
2023-01-06T03:30:44.283Z,88.35
2023-01-06T03:33:23.908Z,88.29
2023-01-06T03:36:09.340Z,88.53
2023-01-06T03:38:50.359Z,88.48
2023-01-06T03:41:50.941Z,88.44
2023-01-06T03:44:34.464Z,88.61
2023-01-06T03:47:13.732Z,88.52
2023-01-06T03:49:53.581Z,88.42
2023-01-06T03:52:30.826Z,88.41
2023-01-06T03:55:07.410Z,88.22
2023-01-06T03:57:41.860Z,88.11
2023-01-06T04:00:17.722Z,88.09
2023-01-06T04:02:50.191Z,88.02
2023-01-06T04:05:24.476Z,87.95
2023-01-06T04:07:55.767Z,87.78
2023-01-06T04:10:25.219Z,87.61
2023-01-06T04:12:56.374Z,87.49
2023-01-06T04:15:29.367Z,87.31
2023-01-06T04:18:00.809Z,87.36
2023-01-06T04:20:31.786Z,87.45
2023-01-06T04:23:02.861Z,87.43
2023-01-06T04:25:34.117Z,87.18
2023-01-06T04:28:05.338Z,87.31
2023-01-06T04:30:36.252Z,87.21
2023-01-06T04:33:08.099Z,87.06
2023-01-06T04:35:39.214Z,87.10
2023-01-06T04:38:09.717Z,87.17
2023-01-06T04:40:42.687Z,87.12
2023-01-06T04:43:16.329Z,87.08
2023-01-06T04:45:47.492Z,87.17
2023-01-06T04:48:18.601Z,87.13
2023-01-06T04:50:49.634Z,87.13
2023-01-06T04:53:20.752Z,87.02
2023-01-06T04:55:51.727Z,87.12
2023-01-06T04:58:22.871Z,87.28
2023-01-06T05:00:52.460Z,87.38
2023-01-06T05:03:23.832Z,87.38
2023-01-06T05:05:54.923Z,87.51
2023-01-06T05:08:26.049Z,87.29
2023-01-06T05:11:03.927Z,87.24
2023-01-06T05:13:35.723Z,87.10
2023-01-06T05:16:11.607Z,87.11
2023-01-06T05:18:42.909Z,87.12
2023-01-06T05:21:14.096Z,87.17
2023-01-06T05:23:45.313Z,87.36
2023-01-06T05:26:19.693Z,87.56
2023-01-06T05:28:53.569Z,87.32
2023-01-06T05:31:25.456Z,87.31
2023-01-06T05:33:56.593Z,87.20
2023-01-06T05:36:27.769Z,87.23
2023-01-06T05:38:59.200Z,87.38
2023-01-06T05:41:30.297Z,87.21
2023-01-06T05:44:01.273Z,87.28
2023-01-06T05:46:32.726Z,87.44
2023-01-06T05:49:02.299Z,87.30
2023-01-06T05:51:33.342Z,87.33
2023-01-06T05:54:08.136Z,87.11
2023-01-06T05:56:39.244Z,87.16
2023-01-06T05:59:10.530Z,87.08
2023-01-06T06:01:41.618Z,87.04
2023-01-06T06:04:12.693Z,87.11
2023-01-06T06:06:43.798Z,87.20
2023-01-06T06:09:14.973Z,87.13
2023-01-06T06:11:44.623Z,87.33
2023-01-06T06:14:17.247Z,87.42
2023-01-06T06:16:48.785Z,87.67
2023-01-06T06:19:20.250Z,87.78
2023-01-06T06:21:49.692Z,87.79
2023-01-06T06:24:20.784Z,87.67
2023-01-06T06:26:51.748Z,87.70
2023-01-06T06:29:22.891Z,87.65
2023-01-06T06:31:54.020Z,87.85
2023-01-06T06:34:25.615Z,87.68
2023-01-06T06:36:56.531Z,87.65
2023-01-06T06:39:27.925Z,87.51
2023-01-06T06:41:59.243Z,87.57
2023-01-06T06:44:30.399Z,87.64
2023-01-06T06:47:02.172Z,87.65
2023-01-06T06:49:33.299Z,87.97
2023-01-06T06:52:04.530Z,88.23
2023-01-06T06:54:35.549Z,88.15
2023-01-06T06:57:06.780Z,88.28
2023-01-06T06:59:36.431Z,88.22
2023-01-06T07:02:07.681Z,88.19
2023-01-06T07:04:37.325Z,88.08
2023-01-06T07:07:08.363Z,88.30
2023-01-06T07:09:39.559Z,88.26
2023-01-06T07:12:11.062Z,88.26
2023-01-06T07:14:42.130Z,88.25
2023-01-06T07:17:13.380Z,88.25
2023-01-06T07:19:44.344Z,88.16
2023-01-06T07:22:15.360Z,88.13
2023-01-06T07:24:46.409Z,88.04
2023-01-06T07:27:17.287Z,88.15
2023-01-06T07:29:48.239Z,88.08
2023-01-06T07:32:19.149Z,88.05
2023-01-06T07:34:50.362Z,88.20
2023-01-06T07:37:21.746Z,88.00
2023-01-06T07:39:52.813Z,87.96
2023-01-06T07:42:23.694Z,87.80
2023-01-06T07:44:54.659Z,87.88
2023-01-06T07:47:25.922Z,87.94
2023-01-06T07:49:55.493Z,87.98
2023-01-06T07:52:26.571Z,88.05
2023-01-06T07:54:59.443Z,87.95
2023-01-06T07:57:31.541Z,87.95
2023-01-06T08:00:02.666Z,87.95
2023-01-06T08:02:34.292Z,87.91
2023-01-06T08:05:06.373Z,87.96
2023-01-06T08:07:37.282Z,88.03
2023-01-06T08:10:09.634Z,87.97
2023-01-06T08:12:40.653Z,88.00
2023-01-06T08:15:12.784Z,88.03
2023-01-06T08:17:43.950Z,87.95
2023-01-06T08:20:16.598Z,88.05
2023-01-06T08:22:47.628Z,87.94
2023-01-06T08:25:18.782Z,88.02
2023-01-06T08:27:49.755Z,87.92
2023-01-06T08:30:21.998Z,87.94
2023-01-06T08:32:53.343Z,87.98
2023-01-06T08:35:22.973Z,88.06
2023-01-06T08:37:53.996Z,88.19
2023-01-06T08:40:25.718Z,88.19
2023-01-06T08:42:57.041Z,88.18
2023-01-06T08:45:28.323Z,88.12
2023-01-06T08:47:59.484Z,88.10
2023-01-06T08:50:30.978Z,88.21
2023-01-06T08:53:02.303Z,88.25
2023-01-06T08:55:33.639Z,88.27
2023-01-06T08:58:04.750Z,88.38
2023-01-06T09:00:34.648Z,88.39
2023-01-06T09:03:05.870Z,88.42
2023-01-06T09:05:36.925Z,88.44
2023-01-06T09:08:08.480Z,88.65
2023-01-06T09:10:41.372Z,88.74
2023-01-06T09:13:12.216Z,88.79
2023-01-06T09:15:45.051Z,88.73
2023-01-06T09:18:16.743Z,88.84
2023-01-06T09:20:49.706Z,88.77
2023-01-06T09:23:22.070Z,88.83
2023-01-06T09:25:53.026Z,88.78
2023-01-06T09:28:24.183Z,88.76
2023-01-06T09:30:55.438Z,88.88
2023-01-06T09:33:27.059Z,89.11
2023-01-06T09:35:58.900Z,89.10
2023-01-06T09:38:30.020Z,89.12
2023-01-06T09:41:21.694Z,89.13
2023-01-06T09:43:59.687Z,89.22
2023-01-06T09:46:35.765Z,89.27
2023-01-06T09:49:21.690Z,89.22
2023-01-06T09:51:53.457Z,89.47
2023-01-06T09:54:29.949Z,89.33
2023-01-06T09:57:06.908Z,89.35
2023-01-06T09:59:43.066Z,89.36
2023-01-06T10:02:23.825Z,89.32
2023-01-06T10:04:55.055Z,89.37
2023-01-06T10:07:29.857Z,89.41
2023-01-06T10:10:15.397Z,89.53
2023-01-06T10:13:00.481Z,89.77
2023-01-06T10:15:41.594Z,89.91
2023-01-06T10:18:28.798Z,89.98
2023-01-06T10:21:09.125Z,90.23
2023-01-06T10:24:12.016Z,90.38
2023-01-06T10:26:46.094Z,90.39
2023-01-06T10:29:19.798Z,90.43
2023-01-06T10:31:53.924Z,90.32
2023-01-06T10:34:26.756Z,90.30
2023-01-06T10:37:11.063Z,90.28
2023-01-06T10:40:07.856Z,90.23
2023-01-06T10:43:03.838Z,90.22
2023-01-06T10:45:53.957Z,90.21
2023-01-06T10:48:43.672Z,90.03
2023-01-06T11:48:49.196Z,91.80
2023-01-06T11:51:34.069Z,91.92
2023-01-06T11:54:22.406Z,91.89
2023-01-06T11:57:02.656Z,91.92
2023-01-06T11:59:49.556Z,91.94
2023-01-06T12:02:29.014Z,91.82
2023-01-06T12:05:04.789Z,91.73
2023-01-06T12:07:44.410Z,91.49
2023-01-06T12:10:21.286Z,91.51
2023-01-06T12:12:52.790Z,91.34
2023-01-06T12:15:28.127Z,91.27
2023-01-06T12:18:03.697Z,91.14
2023-01-06T12:20:37.024Z,90.96
2023-01-06T12:23:13.728Z,90.94
2023-01-06T12:25:47.978Z,91.03
2023-01-06T12:28:23.956Z,91.02
2023-01-06T12:31:02.404Z,91.03
2023-01-06T12:33:41.106Z,90.91
2023-01-06T12:36:17.025Z,90.74
2023-01-06T12:38:55.226Z,90.67
2023-01-06T12:41:33.314Z,90.58
2023-01-06T12:44:14.393Z,90.58
2023-01-06T12:46:51.871Z,90.40
2023-01-06T12:49:23.172Z,90.28
2023-01-06T12:51:57.970Z,90.35
2023-01-06T12:54:33.350Z,90.32
2023-01-06T12:57:16.294Z,90.41
2023-01-06T13:00:01.216Z,90.51
2023-01-06T13:02:49.095Z,90.54
2023-01-06T13:05:38.390Z,90.49
2023-01-06T13:08:25.863Z,90.54
2023-01-06T13:11:07.128Z,90.74
2023-01-06T13:13:55.595Z,90.75
2023-01-06T13:16:33.902Z,90.62
2023-01-06T13:19:24.947Z,90.64
2023-01-06T13:22:00.303Z,90.84
2023-01-06T13:24:49.728Z,90.76
2023-01-06T13:27:48.561Z,90.69
2023-01-06T13:30:47.479Z,90.70
2023-01-06T13:33:40.906Z,90.69
2023-01-06T13:36:40.840Z,90.79
2023-01-06T13:39:17.275Z,90.70
2023-01-06T13:41:54.910Z,90.82
2023-01-06T13:44:31.703Z,90.92
2023-01-06T13:47:08.936Z,91.18
2023-01-06T13:49:41.906Z,91.16
2023-01-06T13:52:20.136Z,91.17
2023-01-06T13:55:06.931Z,91.21
2023-01-06T13:57:40.574Z,91.14
2023-01-06T14:00:25.112Z,91.21
2023-01-06T14:03:22.320Z,91.17
2023-01-06T14:05:58.569Z,91.14
2023-01-06T14:08:34.157Z,91.23
2023-01-06T14:11:19.873Z,91.21
2023-01-06T14:13:56.271Z,91.29
2023-01-06T14:16:42.325Z,91.29
2023-01-06T14:19:19.532Z,91.33
2023-01-06T14:21:52.196Z,91.37
2023-01-06T14:24:28.802Z,91.52
2023-01-06T14:27:02.833Z,91.45
2023-01-06T14:30:20.790Z,91.41
2023-01-06T14:33:39.944Z,91.43
2023-01-06T14:36:15.479Z,91.48
2023-01-06T14:38:53.038Z,91.57
2023-01-06T14:41:30.031Z,91.50
2023-01-06T14:44:05.231Z,91.69
2023-01-06T14:46:43.003Z,91.61
2023-01-06T14:49:20.790Z,91.62
2023-01-06T14:51:54.917Z,91.60
2023-01-06T14:54:31.406Z,91.58
2023-01-06T14:57:05.573Z,91.56
2023-01-06T14:59:36.605Z,91.46
2023-01-06T15:02:16.934Z,91.40
2023-01-06T15:04:56.164Z,91.36
2023-01-06T15:07:27.409Z,91.28
2023-01-06T15:10:21.238Z,91.23
2023-01-06T15:12:56.924Z,91.20
2023-01-06T15:15:31.911Z,91.24
2023-01-06T15:18:08.749Z,91.08
2023-01-06T15:20:45.226Z,91.07
2023-01-06T15:23:18.846Z,91.13
2023-01-06T15:25:53.600Z,91.02
2023-01-06T15:28:29.382Z,91.11
2023-01-06T15:31:04.160Z,91.03
2023-01-06T15:33:40.523Z,91.03
2023-01-06T15:36:19.528Z,91.08
2023-01-06T15:38:53.109Z,91.18
2023-01-06T15:41:38.826Z,91.17
2023-01-06T15:44:26.431Z,91.02
2023-01-06T15:47:05.322Z,91.05
2023-01-06T15:49:38.957Z,91.13
2023-01-06T15:52:18.620Z,91.12
2023-01-06T15:54:50.096Z,91.16
2023-01-06T15:57:21.764Z,91.16
2023-01-06T16:00:01.900Z,91.27
2023-01-06T16:02:34.814Z,91.40
2023-01-06T16:05:06.528Z,91.34
2023-01-06T16:07:41.074Z,91.46
2023-01-06T16:10:34.693Z,91.58
2023-01-06T16:13:34.286Z,91.48
2023-01-06T16:16:09.963Z,91.59
2023-01-06T16:18:42.364Z,91.66
2023-01-06T16:21:23.339Z,91.51
2023-01-06T16:23:56.568Z,91.56
2023-01-06T16:26:30.568Z,91.56
2023-01-06T16:29:03.413Z,91.66
2023-01-06T16:31:37.015Z,91.62
2023-01-06T16:34:28.641Z,91.63
2023-01-06T16:37:01.040Z,91.68
2023-01-06T16:39:32.074Z,91.54
2023-01-06T16:42:41.115Z,91.43
2023-01-06T16:45:27.557Z,91.31
2023-01-06T16:47:58.936Z,91.40
2023-01-06T16:50:39.924Z,91.39
2023-01-06T16:53:18.325Z,91.48
2023-01-06T16:55:54.249Z,91.36
2023-01-06T16:58:27.275Z,91.19
2023-01-06T17:01:04.967Z,91.20
2023-01-06T17:03:39.731Z,91.37
2023-01-06T17:06:19.245Z,91.25
2023-01-06T17:08:52.788Z,91.22
2023-01-06T17:11:25.674Z,91.25
2023-01-06T17:13:58.926Z,91.25
2023-01-06T17:16:36.110Z,91.40
2023-01-06T17:19:20.603Z,91.48
2023-01-06T17:21:53.392Z,91.38
2023-01-06T17:24:26.734Z,91.42
2023-01-06T17:26:59.532Z,91.48
2023-01-06T17:29:33.810Z,91.54
2023-01-06T17:32:15.622Z,91.61
2023-01-06T17:34:46.915Z,91.62
2023-01-06T17:37:24.186Z,91.58
2023-01-06T17:39:55.601Z,91.58
2023-01-06T17:42:30.685Z,91.61
2023-01-06T17:45:03.387Z,91.64
2023-01-06T17:47:45.674Z,91.61
2023-01-06T17:50:29.875Z,91.63
2023-01-06T17:53:35.303Z,91.65
2023-01-06T17:56:08.385Z,91.57
2023-01-06T17:58:41.130Z,91.55
2023-01-06T18:01:16.840Z,91.61
2023-01-06T18:03:48.893Z,91.50
2023-01-06T18:06:37.487Z,91.32
2023-01-06T18:09:15.564Z,91.33
2023-01-06T18:11:49.966Z,91.49
2023-01-06T18:14:29.613Z,91.49
2023-01-06T18:17:06.095Z,91.52
2023-01-06T18:19:39.253Z,91.47
2023-01-06T18:22:18.795Z,91.40
2023-01-06T18:24:51.682Z,91.54
2023-01-06T18:27:26.313Z,91.45
2023-01-06T18:30:01.555Z,91.43
2023-01-06T18:32:34.657Z,91.36
2023-01-06T18:35:10.513Z,91.24
2023-01-06T18:37:41.501Z,91.09
2023-01-06T18:40:18.016Z,90.94
2023-01-06T18:42:50.065Z,91.05
2023-01-06T18:45:25.280Z,91.10
2023-01-06T18:48:01.337Z,91.08
2023-01-06T18:50:37.118Z,91.05
2023-01-06T18:53:20.659Z,91.04
2023-01-06T18:55:54.859Z,91.19
2023-01-06T18:58:37.148Z,91.14
2023-01-06T19:01:17.915Z,91.15
2023-01-06T19:03:59.535Z,91.11
2023-01-06T19:06:38.349Z,91.10
2023-01-06T19:09:33.481Z,90.96
2023-01-06T19:12:17.275Z,91.02
2023-01-06T19:14:51.077Z,91.04
2023-01-06T19:17:27.207Z,90.97
2023-01-06T19:20:01.151Z,90.95
2023-01-06T19:22:34.473Z,90.94
2023-01-06T19:25:09.514Z,90.98
2023-01-06T19:27:47.562Z,91.06
2023-01-06T19:30:51.321Z,91.21
2023-01-06T19:33:31.769Z,91.44
2023-01-06T19:36:28.438Z,91.45
2023-01-06T19:39:01.431Z,91.63
2023-01-06T19:41:34.100Z,92.00
2023-01-06T19:44:16.313Z,91.88
2023-01-06T19:46:49.447Z,92.04
2023-01-06T19:49:23.241Z,92.63
2023-01-06T19:51:55.536Z,92.98
2023-01-06T19:54:28.964Z,92.88
2023-01-06T19:57:01.106Z,93.11
2023-01-06T19:59:35.420Z,93.24
2023-01-06T20:02:28.212Z,93.59
2023-01-06T20:04:59.768Z,93.73
2023-01-06T20:07:30.832Z,93.90
2023-01-06T20:10:01.633Z,93.98
2023-01-06T20:12:32.878Z,93.91
2023-01-06T20:15:02.266Z,93.83
2023-01-06T20:17:33.278Z,93.71
2023-01-06T20:20:05.279Z,93.70
2023-01-06T20:22:36.241Z,93.63
2023-01-06T20:25:06.096Z,93.49
2023-01-06T20:27:37.327Z,93.55
2023-01-06T20:30:10.007Z,93.41
2023-01-06T20:32:41.322Z,93.35
2023-01-06T20:35:14.383Z,93.38
2023-01-06T20:37:45.330Z,93.31
2023-01-06T20:40:18.313Z,93.20
2023-01-06T20:42:49.757Z,93.16
2023-01-06T20:45:21.192Z,93.05
2023-01-06T20:47:53.441Z,92.94
2023-01-06T20:50:27.629Z,92.91
2023-01-06T20:52:58.788Z,93.00
2023-01-06T20:55:29.786Z,92.94
2023-01-06T20:57:59.234Z,92.89
2023-01-06T21:00:30.171Z,92.87
2023-01-06T21:03:01.545Z,92.80
2023-01-06T21:05:33.166Z,92.63
2023-01-06T21:08:04.375Z,92.57
2023-01-06T21:10:35.402Z,92.54
2023-01-06T21:13:07.096Z,92.39
2023-01-06T21:15:38.005Z,92.34
2023-01-06T21:18:09.015Z,92.25
2023-01-06T21:20:39.983Z,92.27
2023-01-06T21:23:11.774Z,92.22
2023-01-06T21:25:43.077Z,92.21
2023-01-06T21:28:14.135Z,92.15
2023-01-06T21:30:43.704Z,92.08
2023-01-06T21:33:14.732Z,92.01
2023-01-06T21:35:46.053Z,92.02
2023-01-06T21:38:17.166Z,92.03
2023-01-06T21:40:48.285Z,91.97
2023-01-06T21:43:19.557Z,91.92
2023-01-06T21:45:50.769Z,91.92
2023-01-06T21:48:22.453Z,91.89
2023-01-06T21:50:53.928Z,91.87
2023-01-06T21:53:26.956Z,91.86
2023-01-06T21:55:57.910Z,91.85
2023-01-06T21:58:29.510Z,91.88
2023-01-06T22:01:00.729Z,91.86
2023-01-06T22:03:31.802Z,91.85
2023-01-06T22:06:03.368Z,91.94
2023-01-06T22:08:35.317Z,92.02
2023-01-06T22:11:08.097Z,91.97
2023-01-06T22:13:41.633Z,92.01
2023-01-06T22:16:13.729Z,92.05
2023-01-06T22:18:45.276Z,92.03
2023-01-06T22:21:17.283Z,91.99
2023-01-06T22:23:49.935Z,91.97
2023-01-06T22:26:20.892Z,92.01
2023-01-06T22:28:50.371Z,92.01
2023-01-06T22:31:23.066Z,91.92
2023-01-06T22:33:54.008Z,92.01
2023-01-06T22:36:25.091Z,92.02
2023-01-06T22:38:56.169Z,91.96
2023-01-06T22:41:25.675Z,91.96
2023-01-06T22:43:56.793Z,91.86
2023-01-06T22:46:28.379Z,91.81
2023-01-06T22:48:59.572Z,91.76
2023-01-06T22:51:32.103Z,91.70
2023-01-06T22:54:03.007Z,91.74
2023-01-06T22:56:32.508Z,91.65
2023-01-06T22:59:03.416Z,91.78
2023-01-06T23:01:34.502Z,91.77
2023-01-06T23:04:05.815Z,91.68
2023-01-06T23:06:36.778Z,91.69
2023-01-06T23:09:06.329Z,91.58
2023-01-06T23:11:41.598Z,91.47
2023-01-06T23:14:13.889Z,91.32
2023-01-06T23:16:45.805Z,91.31
2023-01-06T23:19:17.769Z,91.13
2023-01-06T23:21:48.877Z,91.31
2023-01-06T23:24:19.911Z,91.34
2023-01-06T23:26:49.585Z,91.36
2023-01-06T23:29:20.700Z,91.21
2023-01-06T23:31:51.739Z,91.23
2023-01-06T23:34:23.094Z,91.12
2023-01-06T23:36:52.409Z,91.09
2023-01-06T23:39:23.798Z,91.12
2023-01-06T23:41:56.767Z,91.05
2023-01-06T23:44:27.766Z,91.02
2023-01-06T23:46:58.863Z,90.88
2023-01-06T23:49:28.340Z,90.58
2023-01-06T23:51:59.613Z,90.60
2023-01-06T23:54:29.144Z,90.68
2023-01-06T23:56:59.927Z,90.50
2023-01-06T23:59:31.022Z,90.58
